sensor_id;sensor_type;location;lat;lon;timestamp;temperature;humidity
68235;DHT22;55052;52.056;5.296;2023-12-20T00:01:11;7.80;99.80
68235;DHT22;55052;52.056;5.296;2023-12-20T00:03:38;7.80;99.80
68235;DHT22;55052;52.056;5.296;2023-12-20T00:06:09;7.80;99.80
68235;DHT22;55052;52.056;5.296;2023-12-20T00:08:36;7.80;99.80
68235;DHT22;55052;52.056;5.296;2023-12-20T00:11:03;7.80;99.80
68235;DHT22;55052;52.056;5.296;2023-12-20T00:13:30;7.80;99.80
68235;DHT22;55052;52.056;5.296;2023-12-20T00:15:57;7.80;99.80
68235;DHT22;55052;52.056;5.296;2023-12-20T00:18:24;7.80;99.80
68235;DHT22;55052;52.056;5.296;2023-12-20T00:20:50;7.70;99.70
68235;DHT22;55052;52.056;5.296;2023-12-20T00:23:17;7.70;99.60
68235;DHT22;55052;52.056;5.296;2023-12-20T00:25:44;7.70;99.60
68235;DHT22;55052;52.056;5.296;2023-12-20T00:28:11;7.60;99.60
68235;DHT22;55052;52.056;5.296;2023-12-20T00:30:38;7.60;99.60
68235;DHT22;55052;52.056;5.296;2023-12-20T00:33:05;7.70;99.60
68235;DHT22;55052;52.056;5.296;2023-12-20T00:35:32;7.60;99.60
68235;DHT22;55052;52.056;5.296;2023-12-20T00:37:59;7.60;99.90
68235;DHT22;55052;52.056;5.296;2023-12-20T00:40:26;7.60;99.70
68235;DHT22;55052;52.056;5.296;2023-12-20T00:42:53;7.60;99.70
68235;DHT22;55052;52.056;5.296;2023-12-20T00:45:19;7.60;99.60
68235;DHT22;55052;52.056;5.296;2023-12-20T00:47:46;7.60;99.60
68235;DHT22;55052;52.056;5.296;2023-12-20T00:50:13;7.60;99.60
68235;DHT22;55052;52.056;5.296;2023-12-20T00:52:40;7.60;99.60
68235;DHT22;55052;52.056;5.296;2023-12-20T00:55:07;7.60;99.60
68235;DHT22;55052;52.056;5.296;2023-12-20T00:57:35;7.50;99.60
68235;DHT22;55052;52.056;5.296;2023-12-20T01:00:02;7.50;99.50
68235;DHT22;55052;52.056;5.296;2023-12-20T01:02:29;7.50;99.50
68235;DHT22;55052;52.056;5.296;2023-12-20T01:04:56;7.40;99.40
68235;DHT22;55052;52.056;5.296;2023-12-20T01:07:22;7.40;99.50
68235;DHT22;55052;52.056;5.296;2023-12-20T01:09:49;7.40;99.50
68235;DHT22;55052;52.056;5.296;2023-12-20T01:12:16;7.40;99.50
68235;DHT22;55052;52.056;5.296;2023-12-20T01:14:43;7.30;99.40
68235;DHT22;55052;52.056;5.296;2023-12-20T01:17:10;7.30;99.50
68235;DHT22;55052;52.056;5.296;2023-12-20T01:19:36;7.30;99.50
68235;DHT22;55052;52.056;5.296;2023-12-20T01:22:04;7.30;99.50
68235;DHT22;55052;52.056;5.296;2023-12-20T01:24:31;7.30;99.40
68235;DHT22;55052;52.056;5.296;2023-12-20T01:26:57;7.20;99.40
68235;DHT22;55052;52.056;5.296;2023-12-20T01:29:24;7.20;99.40
68235;DHT22;55052;52.056;5.296;2023-12-20T01:31:51;7.20;99.50
68235;DHT22;55052;52.056;5.296;2023-12-20T01:34:18;7.20;99.60
68235;DHT22;55052;52.056;5.296;2023-12-20T01:36:45;7.20;99.60
68235;DHT22;55052;52.056;5.296;2023-12-20T01:39:12;7.30;99.60
68235;DHT22;55052;52.056;5.296;2023-12-20T01:41:53;7.30;99.70
68235;DHT22;55052;52.056;5.296;2023-12-20T01:44:20;7.30;99.70
68235;DHT22;55052;52.056;5.296;2023-12-20T01:46:47;7.30;99.80
68235;DHT22;55052;52.056;5.296;2023-12-20T01:49:14;7.30;99.80
68235;DHT22;55052;52.056;5.296;2023-12-20T01:51:42;7.40;99.80
68235;DHT22;55052;52.056;5.296;2023-12-20T01:54:10;7.40;99.80
68235;DHT22;55052;52.056;5.296;2023-12-20T01:56:37;7.40;99.80
68235;DHT22;55052;52.056;5.296;2023-12-20T01:59:04;7.40;99.80
68235;DHT22;55052;52.056;5.296;2023-12-20T02:01:31;7.40;99.70
68235;DHT22;55052;52.056;5.296;2023-12-20T02:03:59;7.40;99.70
68235;DHT22;55052;52.056;5.296;2023-12-20T02:06:29;7.40;99.70
68235;DHT22;55052;52.056;5.296;2023-12-20T02:08:58;7.40;99.70
68235;DHT22;55052;52.056;5.296;2023-12-20T02:11:25;7.50;99.70
68235;DHT22;55052;52.056;5.296;2023-12-20T02:13:53;7.50;99.70
68235;DHT22;55052;52.056;5.296;2023-12-20T02:16:21;7.40;99.70
68235;DHT22;55052;52.056;5.296;2023-12-20T02:18:48;7.50;99.80
68235;DHT22;55052;52.056;5.296;2023-12-20T02:21:15;7.50;99.80
68235;DHT22;55052;52.056;5.296;2023-12-20T02:23:42;7.50;99.80
68235;DHT22;55052;52.056;5.296;2023-12-20T02:26:09;7.50;99.80
68235;DHT22;55052;52.056;5.296;2023-12-20T02:28:36;7.60;99.80
68235;DHT22;55052;52.056;5.296;2023-12-20T02:31:03;7.60;99.80
68235;DHT22;55052;52.056;5.296;2023-12-20T02:33:30;7.60;99.60
68235;DHT22;55052;52.056;5.296;2023-12-20T02:35:57;7.60;99.80
68235;DHT22;55052;52.056;5.296;2023-12-20T02:38:24;7.60;99.80
68235;DHT22;55052;52.056;5.296;2023-12-20T02:40:50;7.60;99.70
68235;DHT22;55052;52.056;5.296;2023-12-20T02:43:17;7.70;99.70
68235;DHT22;55052;52.056;5.296;2023-12-20T02:45:44;7.70;99.70
68235;DHT22;55052;52.056;5.296;2023-12-20T02:48:11;7.70;99.70
68235;DHT22;55052;52.056;5.296;2023-12-20T02:50:38;7.70;99.70
68235;DHT22;55052;52.056;5.296;2023-12-20T02:53:05;7.70;99.70
68235;DHT22;55052;52.056;5.296;2023-12-20T02:55:32;7.70;99.70
68235;DHT22;55052;52.056;5.296;2023-12-20T02:57:59;7.70;99.70
68235;DHT22;55052;52.056;5.296;2023-12-20T03:00:25;7.70;99.90
68235;DHT22;55052;52.056;5.296;2023-12-20T03:02:52;7.70;99.70
68235;DHT22;55052;52.056;5.296;2023-12-20T03:05:19;7.80;99.80
68235;DHT22;55052;52.056;5.296;2023-12-20T03:07:47;7.80;99.60
68235;DHT22;55052;52.056;5.296;2023-12-20T03:10:14;7.80;99.60
68235;DHT22;55052;52.056;5.296;2023-12-20T03:12:52;7.80;99.60
68235;DHT22;55052;52.056;5.296;2023-12-20T03:15:18;7.80;99.50
68235;DHT22;55052;52.056;5.296;2023-12-20T03:17:45;7.90;99.60
68235;DHT22;55052;52.056;5.296;2023-12-20T03:20:13;7.90;99.60
68235;DHT22;55052;52.056;5.296;2023-12-20T03:22:40;7.90;99.60
68235;DHT22;55052;52.056;5.296;2023-12-20T03:25:07;7.90;99.60
68235;DHT22;55052;52.056;5.296;2023-12-20T03:27:37;7.90;99.30
68235;DHT22;55052;52.056;5.296;2023-12-20T03:30:05;7.90;99.50
68235;DHT22;55052;52.056;5.296;2023-12-20T03:32:33;7.90;99.50
68235;DHT22;55052;52.056;5.296;2023-12-20T03:34:59;8.00;99.50
68235;DHT22;55052;52.056;5.296;2023-12-20T03:37:26;8.00;99.40
68235;DHT22;55052;52.056;5.296;2023-12-20T03:39:53;8.00;99.40
68235;DHT22;55052;52.056;5.296;2023-12-20T03:42:20;8.00;98.80
68235;DHT22;55052;52.056;5.296;2023-12-20T03:44:47;8.00;99.10
68235;DHT22;55052;52.056;5.296;2023-12-20T03:47:14;8.00;99.30
68235;DHT22;55052;52.056;5.296;2023-12-20T03:49:41;8.00;98.90
68235;DHT22;55052;52.056;5.296;2023-12-20T03:52:08;8.00;99.30
68235;DHT22;55052;52.056;5.296;2023-12-20T03:54:35;8.00;98.70
68235;DHT22;55052;52.056;5.296;2023-12-20T03:57:02;8.00;98.70
68235;DHT22;55052;52.056;5.296;2023-12-20T03:59:29;8.00;98.40
68235;DHT22;55052;52.056;5.296;2023-12-20T04:01:56;8.10;98.70
68235;DHT22;55052;52.056;5.296;2023-12-20T04:04:22;8.10;98.60
68235;DHT22;55052;52.056;5.296;2023-12-20T04:06:49;8.10;98.60
68235;DHT22;55052;52.056;5.296;2023-12-20T04:09:16;8.10;98.60
68235;DHT22;55052;52.056;5.296;2023-12-20T04:11:43;8.00;98.10
68235;DHT22;55052;52.056;5.296;2023-12-20T04:14:10;8.10;98.50
68235;DHT22;55052;52.056;5.296;2023-12-20T04:16:37;8.10;98.30
68235;DHT22;55052;52.056;5.296;2023-12-20T04:19:03;8.10;98.40
68235;DHT22;55052;52.056;5.296;2023-12-20T04:21:31;8.10;98.00
68235;DHT22;55052;52.056;5.296;2023-12-20T04:23:57;8.10;98.10
68235;DHT22;55052;52.056;5.296;2023-12-20T04:26:24;8.10;98.20
68235;DHT22;55052;52.056;5.296;2023-12-20T04:28:51;8.10;98.10
68235;DHT22;55052;52.056;5.296;2023-12-20T04:31:21;8.10;98.40
68235;DHT22;55052;52.056;5.296;2023-12-20T04:33:47;8.10;97.90
68235;DHT22;55052;52.056;5.296;2023-12-20T04:36:14;8.10;97.60
68235;DHT22;55052;52.056;5.296;2023-12-20T04:38:41;8.20;97.80
68235;DHT22;55052;52.056;5.296;2023-12-20T04:41:08;8.20;97.70
68235;DHT22;55052;52.056;5.296;2023-12-20T04:43:35;8.20;97.70
68235;DHT22;55052;52.056;5.296;2023-12-20T04:46:01;8.20;97.50
68235;DHT22;55052;52.056;5.296;2023-12-20T04:48:28;8.20;97.70
68235;DHT22;55052;52.056;5.296;2023-12-20T04:50:55;8.20;97.50
68235;DHT22;55052;52.056;5.296;2023-12-20T04:53:22;8.20;97.40
68235;DHT22;55052;52.056;5.296;2023-12-20T04:55:49;8.30;97.60
68235;DHT22;55052;52.056;5.296;2023-12-20T04:58:16;8.30;97.30
68235;DHT22;55052;52.056;5.296;2023-12-20T05:00:43;8.30;97.50
68235;DHT22;55052;52.056;5.296;2023-12-20T05:03:10;8.30;97.50
68235;DHT22;55052;52.056;5.296;2023-12-20T05:05:37;8.20;97.10
68235;DHT22;55052;52.056;5.296;2023-12-20T05:08:04;8.30;97.40
68235;DHT22;55052;52.056;5.296;2023-12-20T05:10:31;8.30;97.40
68235;DHT22;55052;52.056;5.296;2023-12-20T05:12:58;8.30;97.50
68235;DHT22;55052;52.056;5.296;2023-12-20T05:15:25;8.30;97.30
68235;DHT22;55052;52.056;5.296;2023-12-20T05:17:51;8.30;97.40
68235;DHT22;55052;52.056;5.296;2023-12-20T05:20:18;8.30;97.30
68235;DHT22;55052;52.056;5.296;2023-12-20T05:22:45;8.40;97.40
68235;DHT22;55052;52.056;5.296;2023-12-20T05:25:12;8.40;97.50
68235;DHT22;55052;52.056;5.296;2023-12-20T05:27:39;8.40;97.30
68235;DHT22;55052;52.056;5.296;2023-12-20T05:30:06;8.30;97.00
68235;DHT22;55052;52.056;5.296;2023-12-20T05:32:33;8.30;97.00
68235;DHT22;55052;52.056;5.296;2023-12-20T05:35:00;8.30;97.20
68235;DHT22;55052;52.056;5.296;2023-12-20T05:37:27;8.40;97.30
68235;DHT22;55052;52.056;5.296;2023-12-20T05:39:54;8.40;97.10
68235;DHT22;55052;52.056;5.296;2023-12-20T05:42:20;8.40;96.80
68235;DHT22;55052;52.056;5.296;2023-12-20T05:44:47;8.40;96.70
68235;DHT22;55052;52.056;5.296;2023-12-20T05:47:16;8.40;97.00
68235;DHT22;55052;52.056;5.296;2023-12-20T05:49:44;8.40;97.10
68235;DHT22;55052;52.056;5.296;2023-12-20T05:52:10;8.40;97.00
68235;DHT22;55052;52.056;5.296;2023-12-20T05:54:37;8.40;97.00
68235;DHT22;55052;52.056;5.296;2023-12-20T05:57:04;8.40;97.10
68235;DHT22;55052;52.056;5.296;2023-12-20T05:59:31;8.40;96.70
68235;DHT22;55052;52.056;5.296;2023-12-20T06:01:57;8.40;96.30
68235;DHT22;55052;52.056;5.296;2023-12-20T06:04:24;8.40;96.90
68235;DHT22;55052;52.056;5.296;2023-12-20T06:06:51;8.40;96.60
68235;DHT22;55052;52.056;5.296;2023-12-20T06:09:18;8.40;97.10
68235;DHT22;55052;52.056;5.296;2023-12-20T06:11:46;8.40;96.80
68235;DHT22;55052;52.056;5.296;2023-12-20T06:14:12;8.40;96.80
68235;DHT22;55052;52.056;5.296;2023-12-20T06:16:39;8.40;96.30
68235;DHT22;55052;52.056;5.296;2023-12-20T06:19:06;8.40;96.50
68235;DHT22;55052;52.056;5.296;2023-12-20T06:21:33;8.40;96.70
68235;DHT22;55052;52.056;5.296;2023-12-20T06:24:00;8.50;96.60
68235;DHT22;55052;52.056;5.296;2023-12-20T06:26:27;8.50;96.70
68235;DHT22;55052;52.056;5.296;2023-12-20T06:28:53;8.50;96.60
68235;DHT22;55052;52.056;5.296;2023-12-20T06:31:20;8.50;96.80
68235;DHT22;55052;52.056;5.296;2023-12-20T06:33:47;8.50;96.80
68235;DHT22;55052;52.056;5.296;2023-12-20T06:36:16;8.50;96.80
68235;DHT22;55052;52.056;5.296;2023-12-20T06:38:43;8.50;96.80
68235;DHT22;55052;52.056;5.296;2023-12-20T06:41:13;8.50;96.70
68235;DHT22;55052;52.056;5.296;2023-12-20T06:43:40;8.50;96.80
68235;DHT22;55052;52.056;5.296;2023-12-20T06:46:15;8.50;96.70
68235;DHT22;55052;52.056;5.296;2023-12-20T06:48:43;8.50;96.80
68235;DHT22;55052;52.056;5.296;2023-12-20T06:51:15;8.50;96.80
68235;DHT22;55052;52.056;5.296;2023-12-20T06:53:43;8.50;96.90
68235;DHT22;55052;52.056;5.296;2023-12-20T06:56:10;8.50;96.80
68235;DHT22;55052;52.056;5.296;2023-12-20T06:58:42;8.50;96.90
68235;DHT22;55052;52.056;5.296;2023-12-20T07:01:15;8.50;96.90
68235;DHT22;55052;52.056;5.296;2023-12-20T07:03:42;8.50;97.00
68235;DHT22;55052;52.056;5.296;2023-12-20T07:06:09;8.50;96.90
68235;DHT22;55052;52.056;5.296;2023-12-20T07:08:36;8.50;97.10
68235;DHT22;55052;52.056;5.296;2023-12-20T07:11:03;8.60;97.00
68235;DHT22;55052;52.056;5.296;2023-12-20T07:13:30;8.60;97.00
68235;DHT22;55052;52.056;5.296;2023-12-20T07:15:57;8.50;96.90
68235;DHT22;55052;52.056;5.296;2023-12-20T07:18:24;8.50;96.90
68235;DHT22;55052;52.056;5.296;2023-12-20T07:20:51;8.60;97.00
68235;DHT22;55052;52.056;5.296;2023-12-20T07:23:18;8.60;97.00
68235;DHT22;55052;52.056;5.296;2023-12-20T07:25:47;8.60;97.00
68235;DHT22;55052;52.056;5.296;2023-12-20T07:28:13;8.60;96.90
68235;DHT22;55052;52.056;5.296;2023-12-20T07:30:40;8.60;96.60
68235;DHT22;55052;52.056;5.296;2023-12-20T07:33:07;8.60;96.90
68235;DHT22;55052;52.056;5.296;2023-12-20T07:35:35;8.70;96.90
68235;DHT22;55052;52.056;5.296;2023-12-20T07:38:03;8.70;97.00
68235;DHT22;55052;52.056;5.296;2023-12-20T07:40:30;8.70;96.90
68235;DHT22;55052;52.056;5.296;2023-12-20T07:42:56;8.70;96.90
68235;DHT22;55052;52.056;5.296;2023-12-20T07:45:24;8.70;97.10
68235;DHT22;55052;52.056;5.296;2023-12-20T07:47:51;8.70;97.00
68235;DHT22;55052;52.056;5.296;2023-12-20T07:50:18;8.80;97.00
68235;DHT22;55052;52.056;5.296;2023-12-20T07:52:45;8.70;96.90
68235;DHT22;55052;52.056;5.296;2023-12-20T07:55:12;8.70;96.90
68235;DHT22;55052;52.056;5.296;2023-12-20T07:57:39;8.80;96.90
68235;DHT22;55052;52.056;5.296;2023-12-20T08:00:06;8.80;96.90
68235;DHT22;55052;52.056;5.296;2023-12-20T08:02:33;8.80;97.00
68235;DHT22;55052;52.056;5.296;2023-12-20T08:05:00;8.80;96.90
68235;DHT22;55052;52.056;5.296;2023-12-20T08:07:26;8.80;96.90
68235;DHT22;55052;52.056;5.296;2023-12-20T08:09:53;8.80;96.80
68235;DHT22;55052;52.056;5.296;2023-12-20T08:12:21;8.80;96.70
68235;DHT22;55052;52.056;5.296;2023-12-20T08:14:48;8.80;96.90
68235;DHT22;55052;52.056;5.296;2023-12-20T08:17:15;8.80;96.90
68235;DHT22;55052;52.056;5.296;2023-12-20T08:19:42;8.80;96.60
68235;DHT22;55052;52.056;5.296;2023-12-20T08:22:09;8.90;96.90
68235;DHT22;55052;52.056;5.296;2023-12-20T08:24:36;8.90;96.90
68235;DHT22;55052;52.056;5.296;2023-12-20T08:27:04;8.90;96.60
68235;DHT22;55052;52.056;5.296;2023-12-20T08:29:31;8.90;96.80
68235;DHT22;55052;52.056;5.296;2023-12-20T08:31:58;8.90;97.20
68235;DHT22;55052;52.056;5.296;2023-12-20T08:34:25;8.90;96.80
68235;DHT22;55052;52.056;5.296;2023-12-20T08:36:53;8.90;96.80
68235;DHT22;55052;52.056;5.296;2023-12-20T08:39:20;8.90;96.80
68235;DHT22;55052;52.056;5.296;2023-12-20T08:41:47;8.90;96.80
68235;DHT22;55052;52.056;5.296;2023-12-20T08:44:13;9.00;96.80
68235;DHT22;55052;52.056;5.296;2023-12-20T08:46:40;9.00;96.50
68235;DHT22;55052;52.056;5.296;2023-12-20T08:49:07;8.90;96.50
68235;DHT22;55052;52.056;5.296;2023-12-20T08:51:36;8.90;96.50
68235;DHT22;55052;52.056;5.296;2023-12-20T08:54:02;9.00;96.60
68235;DHT22;55052;52.056;5.296;2023-12-20T08:56:34;9.00;96.50
68235;DHT22;55052;52.056;5.296;2023-12-20T08:59:01;9.00;96.60
68235;DHT22;55052;52.056;5.296;2023-12-20T09:01:27;9.00;96.40
68235;DHT22;55052;52.056;5.296;2023-12-20T09:03:54;9.00;96.50
68235;DHT22;55052;52.056;5.296;2023-12-20T09:06:21;9.00;96.50
68235;DHT22;55052;52.056;5.296;2023-12-20T09:08:48;9.00;96.40
68235;DHT22;55052;52.056;5.296;2023-12-20T09:11:15;9.00;96.60
68235;DHT22;55052;52.056;5.296;2023-12-20T09:13:42;9.00;96.90
68235;DHT22;55052;52.056;5.296;2023-12-20T09:16:08;9.00;96.60
68235;DHT22;55052;52.056;5.296;2023-12-20T09:18:35;9.00;96.60
68235;DHT22;55052;52.056;5.296;2023-12-20T09:21:02;9.00;96.50
68235;DHT22;55052;52.056;5.296;2023-12-20T09:23:29;9.10;96.70
68235;DHT22;55052;52.056;5.296;2023-12-20T09:25:56;9.00;96.30
68235;DHT22;55052;52.056;5.296;2023-12-20T09:28:24;9.00;96.80
68235;DHT22;55052;52.056;5.296;2023-12-20T09:30:50;9.00;96.60
68235;DHT22;55052;52.056;5.296;2023-12-20T09:33:17;9.10;96.70
68235;DHT22;55052;52.056;5.296;2023-12-20T09:35:44;9.10;96.60
68235;DHT22;55052;52.056;5.296;2023-12-20T09:38:12;9.10;96.60
68235;DHT22;55052;52.056;5.296;2023-12-20T09:40:41;9.20;96.70
68235;DHT22;55052;52.056;5.296;2023-12-20T09:43:14;9.20;96.40
68235;DHT22;55052;52.056;5.296;2023-12-20T09:45:45;9.30;96.70
68235;DHT22;55052;52.056;5.296;2023-12-20T09:48:13;9.30;96.60
68235;DHT22;55052;52.056;5.296;2023-12-20T09:50:41;9.30;96.90
68235;DHT22;55052;52.056;5.296;2023-12-20T09:53:15;9.30;96.40
68235;DHT22;55052;52.056;5.296;2023-12-20T09:55:43;9.30;96.20
68235;DHT22;55052;52.056;5.296;2023-12-20T09:58:10;9.40;96.30
68235;DHT22;55052;52.056;5.296;2023-12-20T10:00:37;9.40;96.30
68235;DHT22;55052;52.056;5.296;2023-12-20T10:03:06;9.40;96.00
68235;DHT22;55052;52.056;5.296;2023-12-20T10:05:34;9.40;95.80
68235;DHT22;55052;52.056;5.296;2023-12-20T10:08:02;9.40;96.00
68235;DHT22;55052;52.056;5.296;2023-12-20T10:10:30;9.50;95.80
68235;DHT22;55052;52.056;5.296;2023-12-20T10:13:12;9.50;95.70
68235;DHT22;55052;52.056;5.296;2023-12-20T10:15:39;9.50;96.00
68235;DHT22;55052;52.056;5.296;2023-12-20T10:18:08;9.60;96.00
68235;DHT22;55052;52.056;5.296;2023-12-20T10:20:36;9.60;96.00
68235;DHT22;55052;52.056;5.296;2023-12-20T10:23:03;9.60;95.90
68235;DHT22;55052;52.056;5.296;2023-12-20T10:25:30;9.70;96.00
68235;DHT22;55052;52.056;5.296;2023-12-20T10:30:36;9.70;95.80
68235;DHT22;55052;52.056;5.296;2023-12-20T10:33:05;9.70;95.70
68235;DHT22;55052;52.056;5.296;2023-12-20T10:35:32;9.70;95.70
68235;DHT22;55052;52.056;5.296;2023-12-20T10:38:03;9.80;95.80
68235;DHT22;55052;52.056;5.296;2023-12-20T10:40:34;9.80;95.80
68235;DHT22;55052;52.056;5.296;2023-12-20T10:43:02;9.80;95.70
68235;DHT22;55052;52.056;5.296;2023-12-20T10:45:29;9.80;95.90
68235;DHT22;55052;52.056;5.296;2023-12-20T10:47:56;9.80;95.60
68235;DHT22;55052;52.056;5.296;2023-12-20T10:50:27;9.90;95.60
68235;DHT22;55052;52.056;5.296;2023-12-20T10:52:55;9.90;95.40
68235;DHT22;55052;52.056;5.296;2023-12-20T10:55:25;9.90;95.60
68235;DHT22;55052;52.056;5.296;2023-12-20T10:58:08;10.00;95.60
68235;DHT22;55052;52.056;5.296;2023-12-20T11:00:39;10.00;94.60
68235;DHT22;55052;52.056;5.296;2023-12-20T11:03:11;10.00;94.50
68235;DHT22;55052;52.056;5.296;2023-12-20T11:06:03;10.00;95.10
68235;DHT22;55052;52.056;5.296;2023-12-20T11:08:38;10.00;94.80
68235;DHT22;55052;52.056;5.296;2023-12-20T11:11:20;10.10;94.50
68235;DHT22;55052;52.056;5.296;2023-12-20T11:14:03;10.10;94.90
68235;DHT22;55052;52.056;5.296;2023-12-20T11:16:32;10.10;94.60
68235;DHT22;55052;52.056;5.296;2023-12-20T11:19:14;10.10;94.70
68235;DHT22;55052;52.056;5.296;2023-12-20T11:21:41;10.20;94.80
68235;DHT22;55052;52.056;5.296;2023-12-20T11:24:09;10.10;94.60
68235;DHT22;55052;52.056;5.296;2023-12-20T11:26:36;10.20;94.30
68235;DHT22;55052;52.056;5.296;2023-12-20T11:32:03;10.20;93.70
68235;DHT22;55052;52.056;5.296;2023-12-20T11:34:32;10.20;93.80
68235;DHT22;55052;52.056;5.296;2023-12-20T11:37:00;10.20;93.70
68235;DHT22;55052;52.056;5.296;2023-12-20T11:39:30;10.20;94.10
68235;DHT22;55052;52.056;5.296;2023-12-20T11:42:04;10.20;94.20
68235;DHT22;55052;52.056;5.296;2023-12-20T11:44:31;10.20;94.20
68235;DHT22;55052;52.056;5.296;2023-12-20T11:46:59;10.30;94.30
68235;DHT22;55052;52.056;5.296;2023-12-20T11:49:25;10.30;94.30
68235;DHT22;55052;52.056;5.296;2023-12-20T11:51:53;10.30;94.20
68235;DHT22;55052;52.056;5.296;2023-12-20T11:54:19;10.30;94.20
68235;DHT22;55052;52.056;5.296;2023-12-20T11:56:47;10.30;94.00
68235;DHT22;55052;52.056;5.296;2023-12-20T11:59:15;10.30;94.20
68235;DHT22;55052;52.056;5.296;2023-12-20T12:01:51;10.40;94.10
68235;DHT22;55052;52.056;5.296;2023-12-20T12:04:19;10.30;93.50
68235;DHT22;55052;52.056;5.296;2023-12-20T12:06:46;10.30;93.80
68235;DHT22;55052;52.056;5.296;2023-12-20T12:09:13;10.40;93.90
68235;DHT22;55052;52.056;5.296;2023-12-20T12:11:40;10.30;93.50
68235;DHT22;55052;52.056;5.296;2023-12-20T12:14:07;10.40;93.70
68235;DHT22;55052;52.056;5.296;2023-12-20T12:16:34;10.40;93.70
68235;DHT22;55052;52.056;5.296;2023-12-20T12:19:01;10.30;93.80
68235;DHT22;55052;52.056;5.296;2023-12-20T12:21:28;10.30;93.60
68235;DHT22;55052;52.056;5.296;2023-12-20T12:24:09;10.40;93.90
68235;DHT22;55052;52.056;5.296;2023-12-20T12:26:36;10.40;94.00
68235;DHT22;55052;52.056;5.296;2023-12-20T12:29:03;10.40;94.00
68235;DHT22;55052;52.056;5.296;2023-12-20T12:31:30;10.40;94.00
68235;DHT22;55052;52.056;5.296;2023-12-20T12:33:57;10.40;94.10
68235;DHT22;55052;52.056;5.296;2023-12-20T12:36:24;10.40;94.10
68235;DHT22;55052;52.056;5.296;2023-12-20T12:38:51;10.40;93.90
68235;DHT22;55052;52.056;5.296;2023-12-20T12:41:18;10.40;94.00
68235;DHT22;55052;52.056;5.296;2023-12-20T12:43:45;10.50;94.10
68235;DHT22;55052;52.056;5.296;2023-12-20T12:46:11;10.50;94.00
68235;DHT22;55052;52.056;5.296;2023-12-20T12:48:39;10.50;93.90
68235;DHT22;55052;52.056;5.296;2023-12-20T12:51:08;10.50;93.50
68235;DHT22;55052;52.056;5.296;2023-12-20T12:53:40;10.50;93.60
68235;DHT22;55052;52.056;5.296;2023-12-20T12:56:07;10.50;94.00
68235;DHT22;55052;52.056;5.296;2023-12-20T12:58:34;10.50;93.80
68235;DHT22;55052;52.056;5.296;2023-12-20T13:01:01;10.50;94.00
68235;DHT22;55052;52.056;5.296;2023-12-20T13:03:30;10.50;94.00
68235;DHT22;55052;52.056;5.296;2023-12-20T13:05:57;10.50;93.90
68235;DHT22;55052;52.056;5.296;2023-12-20T13:08:24;10.50;94.10
68235;DHT22;55052;52.056;5.296;2023-12-20T13:10:51;10.50;94.10
68235;DHT22;55052;52.056;5.296;2023-12-20T13:13:18;10.50;94.10
68235;DHT22;55052;52.056;5.296;2023-12-20T13:15:45;10.50;94.20
68235;DHT22;55052;52.056;5.296;2023-12-20T13:18:17;10.50;94.20
68235;DHT22;55052;52.056;5.296;2023-12-20T13:20:47;10.50;94.20
68235;DHT22;55052;52.056;5.296;2023-12-20T13:23:15;10.50;93.50
68235;DHT22;55052;52.056;5.296;2023-12-20T13:25:42;10.50;94.10
68235;DHT22;55052;52.056;5.296;2023-12-20T13:28:08;10.50;94.00
68235;DHT22;55052;52.056;5.296;2023-12-20T13:30:36;10.50;93.80
68235;DHT22;55052;52.056;5.296;2023-12-20T13:33:03;10.50;93.70
68235;DHT22;55052;52.056;5.296;2023-12-20T13:35:30;10.50;93.70
68235;DHT22;55052;52.056;5.296;2023-12-20T13:37:58;10.50;93.70
68235;DHT22;55052;52.056;5.296;2023-12-20T13:40:25;10.50;93.80
68235;DHT22;55052;52.056;5.296;2023-12-20T13:42:52;10.50;93.80
68235;DHT22;55052;52.056;5.296;2023-12-20T13:45:18;10.50;93.80
68235;DHT22;55052;52.056;5.296;2023-12-20T13:47:45;10.50;93.50
68235;DHT22;55052;52.056;5.296;2023-12-20T13:50:13;10.40;93.30
68235;DHT22;55052;52.056;5.296;2023-12-20T13:52:40;10.50;93.50
68235;DHT22;55052;52.056;5.296;2023-12-20T13:55:07;10.50;93.60
68235;DHT22;55052;52.056;5.296;2023-12-20T13:57:35;10.50;93.40
68235;DHT22;55052;52.056;5.296;2023-12-20T14:00:20;10.50;93.40
68235;DHT22;55052;52.056;5.296;2023-12-20T14:02:47;10.50;93.40
68235;DHT22;55052;52.056;5.296;2023-12-20T14:05:15;10.50;93.10
68235;DHT22;55052;52.056;5.296;2023-12-20T14:07:44;10.50;93.50
68235;DHT22;55052;52.056;5.296;2023-12-20T14:10:13;10.50;93.50
68235;DHT22;55052;52.056;5.296;2023-12-20T14:12:40;10.50;93.30
68235;DHT22;55052;52.056;5.296;2023-12-20T14:15:07;10.50;93.40
68235;DHT22;55052;52.056;5.296;2023-12-20T14:17:40;10.50;93.40
68235;DHT22;55052;52.056;5.296;2023-12-20T14:20:11;10.50;93.40
68235;DHT22;55052;52.056;5.296;2023-12-20T14:22:40;10.60;93.40
68235;DHT22;55052;52.056;5.296;2023-12-20T14:25:11;10.50;93.30
68235;DHT22;55052;52.056;5.296;2023-12-20T14:27:42;10.50;92.90
68235;DHT22;55052;52.056;5.296;2023-12-20T14:30:12;10.50;93.40
68235;DHT22;55052;52.056;5.296;2023-12-20T14:32:41;10.50;93.40
68235;DHT22;55052;52.056;5.296;2023-12-20T14:35:08;10.50;93.40
68235;DHT22;55052;52.056;5.296;2023-12-20T14:37:36;10.50;93.40
68235;DHT22;55052;52.056;5.296;2023-12-20T14:40:07;10.40;93.40
68235;DHT22;55052;52.056;5.296;2023-12-20T14:42:43;10.40;93.30
68235;DHT22;55052;52.056;5.296;2023-12-20T14:45:10;10.50;93.70
68235;DHT22;55052;52.056;5.296;2023-12-20T14:47:37;10.40;94.10
68235;DHT22;55052;52.056;5.296;2023-12-20T14:50:05;10.50;93.80
68235;DHT22;55052;52.056;5.296;2023-12-20T14:52:33;10.40;93.80
68235;DHT22;55052;52.056;5.296;2023-12-20T14:55:04;10.40;93.90
68235;DHT22;55052;52.056;5.296;2023-12-20T14:57:32;10.50;94.10
68235;DHT22;55052;52.056;5.296;2023-12-20T14:59:58;10.50;94.10
68235;DHT22;55052;52.056;5.296;2023-12-20T15:02:25;10.40;94.10
68235;DHT22;55052;52.056;5.296;2023-12-20T15:04:52;10.40;94.10
68235;DHT22;55052;52.056;5.296;2023-12-20T15:07:19;10.40;94.30
68235;DHT22;55052;52.056;5.296;2023-12-20T15:09:46;10.40;94.40
68235;DHT22;55052;52.056;5.296;2023-12-20T15:12:14;10.30;94.50
68235;DHT22;55052;52.056;5.296;2023-12-20T15:14:41;10.40;94.60
68235;DHT22;55052;52.056;5.296;2023-12-20T15:17:08;10.40;94.60
68235;DHT22;55052;52.056;5.296;2023-12-20T15:19:35;10.40;95.00
68235;DHT22;55052;52.056;5.296;2023-12-20T15:22:03;10.40;94.70
68235;DHT22;55052;52.056;5.296;2023-12-20T15:24:30;10.40;94.80
68235;DHT22;55052;52.056;5.296;2023-12-20T15:27:05;10.40;94.80
68235;DHT22;55052;52.056;5.296;2023-12-20T15:29:33;10.30;94.90
68235;DHT22;55052;52.056;5.296;2023-12-20T15:32:00;10.30;95.00
68235;DHT22;55052;52.056;5.296;2023-12-20T15:34:26;10.30;95.10
68235;DHT22;55052;52.056;5.296;2023-12-20T15:36:53;10.30;95.20
68235;DHT22;55052;52.056;5.296;2023-12-20T15:39:21;10.30;95.20
68235;DHT22;55052;52.056;5.296;2023-12-20T15:41:48;10.20;95.40
68235;DHT22;55052;52.056;5.296;2023-12-20T15:44:15;10.20;95.50
68235;DHT22;55052;52.056;5.296;2023-12-20T15:46:42;10.20;95.50
68235;DHT22;55052;52.056;5.296;2023-12-20T15:49:09;10.20;95.70
68235;DHT22;55052;52.056;5.296;2023-12-20T15:51:38;10.20;95.80